createdAt,value
2019-02-23T00:00:45.862Z,7.30
2019-02-23T00:03:16.204Z,7.27
2019-02-23T00:05:45.394Z,7.83
2019-02-23T00:08:14.563Z,7.00
2019-02-23T00:10:43.753Z,7.37
2019-02-23T00:13:12.926Z,7.63
2019-02-23T00:15:43.187Z,8.07
2019-02-23T00:18:12.786Z,7.00
2019-02-23T00:20:42.094Z,7.50
2019-02-23T00:23:11.285Z,7.37
2019-02-23T00:25:40.795Z,8.50
2019-02-23T00:28:09.995Z,7.30
2019-02-23T00:30:39.165Z,8.10
2019-02-23T00:33:08.353Z,8.00
2019-02-23T00:35:37.549Z,8.60
2019-02-23T00:38:06.721Z,7.57
2019-02-23T00:40:35.914Z,8.63
2019-02-23T00:43:05.089Z,8.60
2019-02-23T00:45:34.590Z,8.43
2019-02-23T00:48:03.802Z,8.93
2019-02-23T00:50:33.124Z,8.77
2019-02-23T00:53:02.293Z,8.30
2019-02-23T00:55:31.478Z,8.93
2019-02-23T00:58:00.665Z,9.17
2019-02-23T01:00:29.857Z,8.90
2019-02-23T01:02:59.025Z,8.90
2019-02-23T01:05:28.212Z,9.60
2019-02-23T01:07:57.377Z,9.40
2019-02-23T01:10:26.566Z,8.73
2019-02-23T01:12:55.749Z,8.73
2019-02-23T01:15:24.958Z,9.30
2019-02-23T01:17:54.143Z,9.13
2019-02-23T01:20:23.346Z,9.30
2019-02-23T01:22:52.527Z,9.03
2019-02-23T01:25:22.086Z,9.73
2019-02-23T01:27:51.280Z,9.80
2019-02-23T01:30:20.489Z,9.37
2019-02-23T01:32:49.741Z,9.53
2019-02-23T01:35:18.920Z,10.60
2019-02-23T01:37:48.391Z,9.20
2019-02-23T01:40:17.564Z,10.10
2019-02-23T01:42:46.995Z,9.53
2019-02-23T01:45:16.185Z,9.43
2019-02-23T01:47:45.377Z,9.20
2019-02-23T01:50:14.899Z,10.10
2019-02-23T01:52:44.069Z,9.33
2019-02-23T01:55:13.561Z,9.67
2019-02-23T01:57:42.749Z,9.40
2019-02-23T02:00:13.892Z,9.83
2019-02-23T02:02:43.402Z,10.00
2019-02-23T02:05:12.669Z,9.40
2019-02-23T02:07:41.843Z,10.07
2019-02-23T02:10:11.066Z,10.20
2019-02-23T02:12:40.493Z,11.03
2019-02-23T02:15:12.774Z,10.53
2019-02-23T02:17:42.161Z,9.70
2019-02-23T02:20:11.755Z,8.67
2019-02-23T02:22:41.176Z,9.87
2019-02-23T02:25:13.053Z,10.30
2019-02-23T02:27:42.518Z,11.47
2019-02-23T02:30:11.785Z,10.73
2019-02-23T02:32:40.953Z,10.67
2019-02-23T02:35:11.018Z,9.40
2019-02-23T02:37:40.191Z,9.80
2019-02-23T02:40:09.920Z,10.17
2019-02-23T02:42:39.117Z,11.33
2019-02-23T02:45:10.541Z,9.70
2019-02-23T02:47:39.718Z,11.30
2019-02-23T02:50:10.048Z,10.90
2019-02-23T02:52:39.240Z,10.00
2019-02-23T02:55:09.240Z,10.30
2019-02-23T02:57:38.752Z,9.50
2019-02-23T03:00:10.847Z,10.70
2019-02-23T03:02:40.424Z,9.13
2019-02-23T03:05:10.762Z,11.43
2019-02-23T03:07:39.928Z,10.73
2019-02-23T03:10:09.396Z,10.00
2019-02-23T03:12:39.877Z,11.23
2019-02-23T03:15:09.052Z,11.30
2019-02-23T03:17:38.252Z,11.40
2019-02-23T03:20:08.684Z,11.60
2019-02-23T03:22:37.854Z,10.77
2019-02-23T03:25:07.683Z,10.50
2019-02-23T03:27:37.406Z,10.87
2019-02-23T03:30:10.041Z,10.17
2019-02-23T03:32:47.539Z,11.03
2019-02-23T03:35:17.292Z,12.50
2019-02-23T03:37:50.073Z,11.30
2019-02-23T03:40:22.651Z,11.77
2019-02-23T03:42:52.520Z,10.80
2019-02-23T03:45:26.534Z,11.03
2019-02-23T03:47:59.812Z,11.37
2019-02-23T03:50:34.732Z,11.10
2019-02-23T03:53:06.358Z,9.97
2019-02-23T03:55:42.018Z,10.53
2019-02-23T03:58:14.374Z,11.17
2019-02-23T04:00:48.240Z,10.80
2019-02-23T04:03:19.694Z,11.50
2019-02-23T04:05:51.506Z,11.07
2019-02-23T04:08:23.450Z,11.00
2019-02-23T04:10:58.605Z,10.77
2019-02-23T04:13:32.700Z,11.20
2019-02-23T04:16:07.537Z,11.77
2019-02-23T04:18:44.686Z,10.87
2019-02-23T04:21:22.265Z,11.60
2019-02-23T04:23:57.079Z,11.90
2019-02-23T04:26:32.341Z,11.53
2019-02-23T04:29:03.955Z,11.50
2019-02-23T04:31:35.482Z,12.23
2019-02-23T04:34:12.490Z,12.13
2019-02-23T04:39:36.921Z,12.47
2019-02-23T04:42:07.462Z,12.10
2019-02-23T04:44:41.232Z,12.20
2019-02-23T04:47:12.963Z,12.47
2019-02-23T04:49:53.619Z,13.43
2019-02-23T04:52:27.716Z,12.70
2019-02-23T04:55:00.998Z,12.97
2019-02-23T04:57:39.853Z,12.40
2019-02-23T05:00:15.719Z,13.07
2019-02-23T05:02:52.196Z,13.17
2019-02-23T05:05:30.168Z,12.90
2019-02-23T05:08:05.631Z,13.27
2019-02-23T05:10:40.836Z,13.20
2019-02-23T05:16:09.510Z,13.80
2019-02-23T05:18:40.651Z,13.33
2019-02-23T05:21:25.989Z,13.60
2019-02-23T05:23:53.884Z,14.33
2019-02-23T05:26:32.748Z,13.53
2019-02-23T05:29:06.935Z,14.30
2019-02-23T05:31:44.455Z,13.37
2019-02-23T05:34:15.142Z,13.83
2019-02-23T05:36:53.657Z,12.93
2019-02-23T05:39:27.817Z,13.93
2019-02-23T05:42:05.371Z,13.23
2019-02-23T05:44:36.903Z,15.30
2019-02-23T05:47:06.920Z,13.63
2019-02-23T05:49:37.202Z,13.20
2019-02-23T05:52:17.300Z,13.47
2019-02-23T05:54:48.057Z,13.77
2019-02-23T05:57:21.645Z,14.30
2019-02-23T05:59:57.997Z,14.07
2019-02-23T06:02:35.285Z,14.77
2019-02-23T06:05:04.032Z,15.20
2019-02-23T06:07:43.042Z,13.83
2019-02-23T06:10:17.455Z,13.90
2019-02-23T06:15:43.366Z,14.20
2019-02-23T06:18:15.897Z,15.93
2019-02-23T06:20:50.334Z,13.63
2019-02-23T06:23:22.789Z,15.03
2019-02-23T06:25:57.577Z,14.63
2019-02-23T06:28:32.744Z,15.07
2019-02-23T06:31:09.618Z,14.17
2019-02-23T06:33:45.975Z,15.13
2019-02-23T06:36:22.660Z,13.87
2019-02-23T06:38:59.141Z,14.10
2019-02-23T06:41:41.837Z,15.60
2019-02-23T06:44:16.323Z,15.83
2019-02-23T06:46:54.588Z,15.50
2019-02-23T06:49:25.013Z,16.33
2019-02-23T06:52:03.961Z,14.23
2019-02-23T06:54:29.965Z,15.20
2019-02-23T06:57:01.008Z,15.20
2019-02-23T06:59:37.885Z,15.20
2019-02-23T07:02:07.489Z,15.73
2019-02-23T07:04:41.298Z,16.13
2019-02-23T07:07:21.704Z,14.80
2019-02-23T07:09:51.571Z,14.23
2019-02-23T07:12:22.659Z,14.60
2019-02-23T07:14:54.308Z,15.20
2019-02-23T07:17:26.131Z,15.70
2019-02-23T07:20:01.575Z,15.67
2019-02-23T07:22:37.117Z,15.43
2019-02-23T07:25:09.799Z,15.00
2019-02-23T07:27:39.414Z,16.83
2019-02-23T07:30:15.470Z,16.33
2019-02-23T07:32:45.179Z,15.30
2019-02-23T07:35:19.087Z,14.90
2019-02-23T07:37:52.075Z,14.70
2019-02-23T07:40:26.991Z,14.27
2019-02-23T07:42:58.353Z,15.93
2019-02-23T07:45:31.030Z,15.97
2019-02-23T07:51:07.212Z,14.37
2019-02-23T07:53:44.748Z,14.57
2019-02-23T07:56:19.025Z,15.50
2019-02-23T07:59:02.448Z,15.07
2019-02-23T08:01:32.576Z,14.97
2019-02-23T08:04:05.099Z,13.83
2019-02-23T08:06:34.755Z,14.50
2019-02-23T08:09:09.153Z,14.73
2019-02-23T08:11:39.934Z,14.13
2019-02-23T08:14:11.350Z,13.40
2019-02-23T08:16:40.720Z,14.57
2019-02-23T08:19:11.948Z,14.00
2019-02-23T08:21:43.980Z,13.80
2019-02-23T08:24:18.708Z,15.00
2019-02-23T08:26:48.475Z,14.17
2019-02-23T08:29:19.700Z,15.30
2019-02-23T08:31:53.983Z,14.70
2019-02-23T08:34:25.314Z,14.73
2019-02-23T08:36:58.453Z,15.50
2019-02-23T08:39:31.362Z,13.30
2019-02-23T08:42:02.994Z,13.30
2019-02-23T08:44:33.330Z,13.80
2019-02-23T08:47:07.363Z,15.43
2019-02-23T08:49:38.918Z,13.73
2019-02-23T08:52:17.387Z,14.10
2019-02-23T08:54:48.307Z,14.70
2019-02-23T08:57:19.656Z,14.03
2019-02-23T08:59:52.646Z,13.90
2019-02-23T09:02:24.985Z,14.50
2019-02-23T09:07:52.507Z,14.33
2019-02-23T09:10:28.971Z,14.63
2019-02-23T09:16:05.357Z,12.70
2019-02-23T09:18:44.705Z,13.63
2019-02-23T09:21:22.096Z,14.30
2019-02-23T09:24:00.697Z,14.53
2019-02-23T09:26:42.777Z,14.17
2019-02-23T09:29:23.367Z,14.10
2019-02-23T09:31:58.494Z,13.60
2019-02-23T09:34:35.707Z,15.23
2019-02-23T09:37:13.792Z,15.37
2019-02-23T09:39:46.781Z,15.30
2019-02-23T09:42:21.834Z,14.50
2019-02-23T09:44:55.436Z,14.47
2019-02-23T09:47:28.909Z,14.47
2019-02-23T09:49:59.651Z,14.57
2019-02-23T09:52:32.141Z,14.70
2019-02-23T09:55:03.643Z,15.80
2019-02-23T09:57:37.653Z,14.23
2019-02-23T10:00:12.606Z,14.57
2019-02-23T10:02:44.745Z,14.70
2019-02-23T10:05:18.189Z,15.83
2019-02-23T10:07:50.216Z,13.77
2019-02-23T10:10:19.812Z,15.70
2019-02-23T10:12:49.201Z,14.40
2019-02-23T10:15:25.947Z,14.53
2019-02-23T10:17:57.080Z,16.33
2019-02-23T10:20:29.882Z,15.50
2019-02-23T10:23:02.661Z,13.77
2019-02-23T10:25:36.826Z,15.47
2019-02-23T10:31:22.833Z,15.20
2019-02-23T10:33:47.322Z,15.33
2019-02-23T10:36:16.570Z,14.43
2019-02-23T10:38:48.273Z,13.97
2019-02-23T10:41:20.932Z,16.67
2019-02-23T10:43:52.862Z,15.30
2019-02-23T10:46:24.827Z,16.40
2019-02-23T10:48:55.509Z,15.40
2019-02-23T10:51:26.491Z,14.17
2019-02-23T10:53:57.747Z,14.07
2019-02-23T10:56:36.263Z,13.97
2019-02-23T10:59:11.191Z,14.53
2019-02-23T11:01:43.781Z,15.57
2019-02-23T11:04:15.038Z,14.57
2019-02-23T11:06:54.538Z,15.40
2019-02-23T11:09:34.313Z,14.37
2019-02-23T11:12:07.725Z,14.80
2019-02-23T11:17:35.087Z,15.10
2019-02-23T11:20:13.080Z,14.20
2019-02-23T11:22:44.457Z,14.43
2019-02-23T11:25:19.465Z,14.40
2019-02-23T11:27:53.077Z,13.97
2019-02-23T11:30:27.193Z,15.27
2019-02-23T11:32:57.720Z,15.00
2019-02-23T11:35:30.537Z,13.38
2019-02-23T11:38:14.375Z,13.93
2019-02-23T11:40:49.168Z,14.40
2019-02-23T11:43:22.243Z,13.53
2019-02-23T11:45:54.843Z,14.70
2019-02-23T11:48:26.375Z,13.90
2019-02-23T11:50:58.951Z,13.40
2019-02-23T11:53:33.986Z,14.63
2019-02-23T11:56:06.670Z,13.97
2019-02-23T11:58:36.359Z,13.40
2019-02-23T12:01:05.994Z,12.50
2019-02-23T12:03:39.992Z,12.67
2019-02-23T12:06:24.762Z,12.90
2019-02-23T12:08:57.250Z,11.57
2019-02-23T12:11:32.163Z,14.40
2019-02-23T12:14:03.312Z,13.40
2019-02-23T12:16:36.612Z,12.70
2019-02-23T12:19:10.893Z,12.73
2019-02-23T12:21:43.714Z,12.43
2019-02-23T12:24:19.773Z,11.73
2019-02-23T12:26:58.145Z,11.10
2019-02-23T12:29:30.867Z,12.60
2019-02-23T12:32:14.126Z,12.97
2019-02-23T12:34:37.929Z,11.73
2019-02-23T12:37:09.099Z,11.80
2019-02-23T12:39:46.871Z,10.93
2019-02-23T12:42:22.828Z,11.40
2019-02-23T12:45:02.901Z,10.50
2019-02-23T12:47:38.129Z,11.33
2019-02-23T12:50:18.490Z,12.00
2019-02-23T12:52:54.868Z,10.70
2019-02-23T12:55:31.539Z,11.63
2019-02-23T12:58:11.306Z,11.20
2019-02-23T13:00:46.552Z,10.90
2019-02-23T13:03:21.461Z,12.10
2019-02-23T13:05:52.708Z,11.03
2019-02-23T13:08:31.037Z,11.03
2019-02-23T13:11:09.452Z,11.30
2019-02-23T13:13:42.374Z,12.30
2019-02-23T13:16:17.592Z,11.17
2019-02-23T13:19:13.175Z,11.60
2019-02-23T13:21:53.255Z,11.10
2019-02-23T13:25:00.408Z,11.57
2019-02-23T13:27:40.768Z,12.97
2019-02-23T13:30:39.179Z,11.73
2019-02-23T13:33:18.003Z,11.10
2019-02-23T13:36:06.027Z,12.07
2019-02-23T13:39:09.748Z,11.23
2019-02-23T13:42:17.668Z,11.30
2019-02-23T13:45:16.429Z,11.33
2019-02-23T13:48:14.492Z,11.17
2019-02-23T13:51:15.053Z,11.77
2019-02-23T13:53:57.451Z,11.13
2019-02-23T13:56:30.261Z,11.63
2019-02-23T13:59:12.819Z,12.50
2019-02-23T14:02:06.792Z,11.73
2019-02-23T14:04:42.862Z,11.00
2019-02-23T14:07:29.459Z,11.67
2019-02-23T14:10:39.424Z,10.63
2019-02-23T14:13:39.549Z,11.27
2019-02-23T14:16:39.360Z,10.40
2019-02-23T14:19:29.654Z,11.13
2019-02-23T14:22:26.840Z,11.07
2019-02-23T14:25:17.280Z,10.53
2019-02-23T14:28:18.561Z,10.80
2019-02-23T14:30:56.308Z,11.17
2019-02-23T14:33:34.109Z,11.00
2019-02-23T14:36:18.518Z,11.07
2019-02-23T14:38:56.813Z,10.60
2019-02-23T14:41:47.012Z,9.70
2019-02-23T14:44:22.090Z,10.80
2019-02-23T14:47:03.081Z,10.83
2019-02-23T14:50:00.693Z,10.60
2019-02-23T14:52:45.068Z,10.73
2019-02-23T14:55:39.934Z,10.57
2019-02-23T14:58:30.406Z,9.90
2019-02-23T15:01:05.464Z,10.03
2019-02-23T15:04:04.689Z,8.90
2019-02-23T15:06:37.354Z,9.67
2019-02-23T15:09:36.303Z,9.50
2019-02-23T15:12:25.538Z,9.63
2019-02-23T15:15:16.925Z,9.37
2019-02-23T15:17:55.266Z,8.53
2019-02-23T15:20:48.711Z,10.03
2019-02-23T15:23:26.853Z,9.20
2019-02-23T15:26:27.826Z,9.40
2019-02-23T15:29:24.319Z,9.33
2019-02-23T15:32:16.392Z,9.00
2019-02-23T15:35:06.933Z,8.77
2019-02-23T15:37:48.061Z,8.80
2019-02-23T15:40:43.939Z,9.60
2019-02-23T15:43:25.458Z,9.30
2019-02-23T15:46:09.698Z,9.90
2019-02-23T15:49:04.781Z,9.73
2019-02-23T15:51:34.042Z,10.07
2019-02-23T15:54:03.310Z,10.07
2019-02-23T15:56:32.522Z,9.27
2019-02-23T15:59:01.989Z,9.50
2019-02-23T16:01:31.187Z,8.73
2019-02-23T16:04:00.361Z,9.90
2019-02-23T16:06:31.599Z,8.87
2019-02-23T16:09:00.427Z,8.93
2019-02-23T16:11:31.241Z,9.50
2019-02-23T16:14:00.401Z,8.97
2019-02-23T16:16:29.582Z,9.47
2019-02-23T16:18:59.720Z,8.53
2019-02-23T16:21:28.986Z,8.47
2019-02-23T16:23:58.231Z,8.23
2019-02-23T16:26:27.416Z,8.20
2019-02-23T16:28:57.486Z,8.30
2019-02-23T16:31:26.669Z,7.87
2019-02-23T16:33:55.844Z,8.87
2019-02-23T16:36:25.020Z,9.23
2019-02-23T16:38:54.233Z,9.30
2019-02-23T16:41:23.388Z,8.80
2019-02-23T16:43:52.570Z,8.03
2019-02-23T16:46:21.740Z,9.53
2019-02-23T16:48:50.921Z,9.03
2019-02-23T16:51:20.181Z,9.63
2019-02-23T16:53:49.361Z,8.83
2019-02-23T16:56:18.526Z,8.93
2019-02-23T16:58:47.731Z,8.43
2019-02-23T17:01:16.900Z,8.87
2019-02-23T17:03:46.084Z,9.30
2019-02-23T17:06:15.264Z,10.50
2019-02-23T17:08:44.712Z,10.03
2019-02-23T17:11:14.166Z,9.60
2019-02-23T17:13:43.387Z,10.27
2019-02-23T17:16:12.604Z,11.30
2019-02-23T17:18:42.082Z,9.00
2019-02-23T17:21:11.594Z,9.17
2019-02-23T17:23:40.786Z,8.70
2019-02-23T17:26:10.031Z,8.67
2019-02-23T17:28:39.212Z,9.43
2019-02-23T17:31:08.513Z,9.37
2019-02-23T17:33:39.630Z,10.27
2019-02-23T17:36:08.815Z,8.40
2019-02-23T17:38:39.655Z,8.57
2019-02-23T17:41:08.833Z,9.00
2019-02-23T17:43:40.195Z,9.23
2019-02-23T17:46:08.903Z,8.83
2019-02-23T17:48:38.119Z,10.37
2019-02-23T17:51:08.481Z,10.73
2019-02-23T17:53:38.776Z,9.53
2019-02-23T17:56:12.277Z,9.33
2019-02-23T17:58:40.952Z,9.20
2019-02-23T18:01:10.140Z,9.10
2019-02-23T18:03:39.655Z,8.50
2019-02-23T18:06:08.844Z,8.27
2019-02-23T18:08:38.030Z,9.67
2019-02-23T18:11:07.207Z,9.27
2019-02-23T18:13:36.405Z,9.00
2019-02-23T18:16:05.608Z,10.17
2019-02-23T18:18:34.783Z,8.93
2019-02-23T18:21:03.999Z,9.13
2019-02-23T18:23:33.212Z,9.43
2019-02-23T18:26:03.360Z,8.83
2019-02-23T18:28:32.873Z,9.97
2019-02-23T18:31:02.056Z,9.13
2019-02-23T18:33:31.289Z,8.90
2019-02-23T18:36:00.494Z,9.00
2019-02-23T18:38:31.858Z,8.97
2019-02-23T18:41:01.024Z,9.30
2019-02-23T18:43:30.245Z,9.30
2019-02-23T18:46:00.576Z,9.50
2019-02-23T18:48:29.816Z,10.50
2019-02-23T18:50:59.084Z,9.07
2019-02-23T18:53:28.271Z,10.10
2019-02-23T18:55:57.475Z,10.63
2019-02-23T18:58:26.658Z,10.80
2019-02-23T19:00:55.855Z,10.07
2019-02-23T19:03:25.098Z,10.37
2019-02-23T19:05:55.256Z,9.73
2019-02-23T19:08:24.512Z,11.20
2019-02-23T19:10:53.696Z,12.23
2019-02-23T19:13:22.896Z,12.07
2019-02-23T19:15:52.096Z,11.73
2019-02-23T19:18:21.287Z,12.30
2019-02-23T19:20:50.486Z,12.37
2019-02-23T19:23:19.968Z,12.80
2019-02-23T19:25:49.489Z,14.80
2019-02-23T19:28:19.832Z,16.07
2019-02-23T19:30:49.027Z,18.50
2019-02-23T19:33:18.290Z,20.30
2019-02-23T19:35:47.488Z,19.40
2019-02-23T19:38:16.762Z,15.90
2019-02-23T19:40:45.948Z,15.80
2019-02-23T19:43:15.140Z,16.20
2019-02-23T19:45:44.615Z,15.67
2019-02-23T19:48:13.882Z,15.77
2019-02-23T19:50:46.309Z,16.03
2019-02-23T19:53:15.560Z,14.63
2019-02-23T19:55:45.193Z,12.60
2019-02-23T19:58:15.446Z,13.77
2019-02-23T20:00:44.647Z,12.93
2019-02-23T20:03:13.844Z,15.20
2019-02-23T20:05:43.423Z,14.00
2019-02-23T20:08:12.601Z,13.90
2019-02-23T20:10:43.015Z,12.03
2019-02-23T20:13:12.278Z,11.90
2019-02-23T20:15:41.477Z,12.03
2019-02-23T20:18:10.679Z,13.93
2019-02-23T20:20:40.490Z,11.97
2019-02-23T20:23:09.828Z,12.17
2019-02-23T20:25:40.075Z,12.00
2019-02-23T20:28:09.601Z,12.13
2019-02-23T20:30:38.777Z,12.27
2019-02-23T20:33:08.040Z,12.50
2019-02-23T20:35:37.248Z,11.40
2019-02-23T20:38:06.513Z,13.03
2019-02-23T20:40:35.696Z,10.60
2019-02-23T20:43:04.929Z,11.37
2019-02-23T20:45:34.409Z,11.80
2019-02-23T20:48:03.690Z,11.40
2019-02-23T20:50:32.875Z,11.20
2019-02-23T20:53:02.242Z,12.67
2019-02-23T20:55:31.423Z,12.40
2019-02-23T20:58:00.699Z,11.30
2019-02-23T21:00:29.905Z,11.10
2019-02-23T21:02:59.077Z,10.40
2019-02-23T21:05:28.257Z,11.90
2019-02-23T21:07:57.442Z,11.10
2019-02-23T21:10:26.732Z,11.43
2019-02-23T21:12:55.995Z,11.80
2019-02-23T21:15:25.193Z,12.10
2019-02-23T21:17:54.374Z,12.20
2019-02-23T21:20:23.571Z,10.70
2019-02-23T21:22:52.755Z,11.90
2019-02-23T21:25:22.214Z,12.67
2019-02-23T21:27:51.468Z,11.93
2019-02-23T21:30:21.016Z,11.80
2019-02-23T21:32:50.217Z,11.93
2019-02-23T21:35:19.724Z,11.73
2019-02-23T21:37:49.113Z,11.13
2019-02-23T21:40:18.301Z,12.47
2019-02-23T21:42:47.537Z,10.40
2019-02-23T21:45:16.734Z,11.63
2019-02-23T21:47:45.919Z,11.70
2019-02-23T21:50:15.116Z,11.70
2019-02-23T21:52:44.308Z,11.33
2019-02-23T21:55:13.666Z,12.10
2019-02-23T21:57:42.856Z,13.03
2019-02-23T22:00:12.304Z,11.87
2019-02-23T22:02:41.482Z,11.60
2019-02-23T22:05:12.609Z,12.00
2019-02-23T22:07:44.415Z,12.07
2019-02-23T22:10:13.643Z,11.90
2019-02-23T22:12:42.805Z,11.07
2019-02-23T22:15:12.334Z,11.80
2019-02-23T22:17:42.600Z,10.40
2019-02-23T22:20:12.932Z,12.17
2019-02-23T22:22:42.396Z,11.93
2019-02-23T22:25:11.650Z,12.50
2019-02-23T22:27:40.870Z,11.47
2019-02-23T22:30:10.083Z,11.90
2019-02-23T22:32:39.273Z,11.27
2019-02-23T22:35:08.463Z,10.50
2019-02-23T22:37:37.667Z,10.93
2019-02-23T22:40:07.630Z,10.60
2019-02-23T22:42:37.117Z,9.17
2019-02-23T22:45:07.735Z,10.10
2019-02-23T22:47:36.929Z,9.60
2019-02-23T22:50:08.402Z,9.13
2019-02-23T22:52:37.596Z,8.50
2019-02-23T22:55:06.767Z,8.03
2019-02-23T22:57:40.521Z,9.23
2019-02-23T23:00:09.755Z,9.00
2019-02-23T23:02:40.535Z,9.53
2019-02-23T23:05:10.321Z,9.40
2019-02-23T23:07:39.753Z,9.50
2019-02-23T23:10:08.928Z,8.13
2019-02-23T23:12:38.461Z,9.10
2019-02-23T23:15:08.314Z,8.03
2019-02-23T23:17:38.574Z,8.40
2019-02-23T23:20:08.572Z,8.23
2019-02-23T23:22:37.770Z,8.10
2019-02-23T23:25:07.774Z,7.53
2019-02-23T23:27:36.941Z,8.50
2019-02-23T23:30:08.269Z,7.93
2019-02-23T23:32:37.436Z,8.17
2019-02-23T23:35:06.704Z,8.60
2019-02-23T23:37:35.898Z,8.23
2019-02-23T23:40:06.328Z,6.93
2019-02-23T23:42:35.485Z,7.60
2019-02-23T23:45:06.245Z,8.70
2019-02-23T23:47:36.391Z,7.80
2019-02-23T23:50:06.891Z,7.90
2019-02-23T23:52:36.067Z,9.03
2019-02-23T23:55:05.895Z,9.57
2019-02-23T23:57:36.034Z,7.63
